sensor_id;sensor_type;location;lat;lon;timestamp;temperature;humidity
21031;DHT22;61072;47.808;7.636;2022-09-27T00:01:27;12.70;99.90
21031;DHT22;61072;47.808;7.636;2022-09-27T00:03:54;12.70;99.90
21031;DHT22;61072;47.808;7.636;2022-09-27T00:06:26;12.60;99.90
21031;DHT22;61072;47.808;7.636;2022-09-27T00:08:55;12.60;99.90
21031;DHT22;61072;47.808;7.636;2022-09-27T00:11:32;12.60;99.90
21031;DHT22;61072;47.808;7.636;2022-09-27T00:13:59;12.60;99.90
21031;DHT22;61072;47.808;7.636;2022-09-27T00:16:28;12.50;99.90
21031;DHT22;61072;47.808;7.636;2022-09-27T00:19:00;12.50;99.90
21031;DHT22;61072;47.808;7.636;2022-09-27T00:21:28;12.50;99.90
21031;DHT22;61072;47.808;7.636;2022-09-27T00:23:57;12.50;99.90
21031;DHT22;61072;47.808;7.636;2022-09-27T00:26:25;12.50;99.90
21031;DHT22;61072;47.808;7.636;2022-09-27T00:28:52;12.50;99.90
21031;DHT22;61072;47.808;7.636;2022-09-27T00:31:23;12.50;99.90
21031;DHT22;61072;47.808;7.636;2022-09-27T00:33:52;12.50;99.90
21031;DHT22;61072;47.808;7.636;2022-09-27T00:36:20;12.50;99.90
21031;DHT22;61072;47.808;7.636;2022-09-27T00:38:47;12.50;99.90
21031;DHT22;61072;47.808;7.636;2022-09-27T00:41:19;12.50;99.90
21031;DHT22;61072;47.808;7.636;2022-09-27T00:43:58;12.50;99.90
21031;DHT22;61072;47.808;7.636;2022-09-27T00:51:46;12.40;99.90
21031;DHT22;61072;47.808;7.636;2022-09-27T00:54:15;12.40;99.90
21031;DHT22;61072;47.808;7.636;2022-09-27T00:56:43;12.40;99.90
21031;DHT22;61072;47.808;7.636;2022-09-27T00:59:17;12.40;99.90
21031;DHT22;61072;47.808;7.636;2022-09-27T01:01:44;12.40;99.90
21031;DHT22;61072;47.808;7.636;2022-09-27T01:04:13;12.40;99.90
21031;DHT22;61072;47.808;7.636;2022-09-27T01:06:43;12.40;99.90
21031;DHT22;61072;47.808;7.636;2022-09-27T01:09:11;12.40;99.90
21031;DHT22;61072;47.808;7.636;2022-09-27T01:20:08;12.40;99.90
21031;DHT22;61072;47.808;7.636;2022-09-27T01:26:12;12.40;99.90
21031;DHT22;61072;47.808;7.636;2022-09-27T01:32:01;12.40;99.90
21031;DHT22;61072;47.808;7.636;2022-09-27T01:40:23;12.30;99.90
21031;DHT22;61072;47.808;7.636;2022-09-27T01:45:32;12.30;99.90
21031;DHT22;61072;47.808;7.636;2022-09-27T01:48:06;12.30;99.90
21031;DHT22;61072;47.808;7.636;2022-09-27T01:50:44;12.40;99.90
21031;DHT22;61072;47.808;7.636;2022-09-27T01:53:39;12.40;99.90
21031;DHT22;61072;47.808;7.636;2022-09-27T01:56:13;12.40;99.90
21031;DHT22;61072;47.808;7.636;2022-09-27T01:59:01;12.40;99.90
21031;DHT22;61072;47.808;7.636;2022-09-27T02:01:31;12.40;99.90
21031;DHT22;61072;47.808;7.636;2022-09-27T02:03:59;12.40;99.90
21031;DHT22;61072;47.808;7.636;2022-09-27T02:06:32;12.40;99.90
21031;DHT22;61072;47.808;7.636;2022-09-27T02:09:02;12.40;99.90
21031;DHT22;61072;47.808;7.636;2022-09-27T02:11:29;12.40;99.90
21031;DHT22;61072;47.808;7.636;2022-09-27T02:14:03;12.40;99.90
21031;DHT22;61072;47.808;7.636;2022-09-27T02:19:46;12.40;99.90
21031;DHT22;61072;47.808;7.636;2022-09-27T02:22:35;12.30;99.90
21031;DHT22;61072;47.808;7.636;2022-09-27T02:27:35;12.30;99.90
21031;DHT22;61072;47.808;7.636;2022-09-27T02:30:12;12.30;99.90
21031;DHT22;61072;47.808;7.636;2022-09-27T02:32:41;12.30;99.90
21031;DHT22;61072;47.808;7.636;2022-09-27T02:37:40;12.20;99.90
21031;DHT22;61072;47.808;7.636;2022-09-27T02:40:07;12.20;99.90
21031;DHT22;61072;47.808;7.636;2022-09-27T02:42:34;12.20;99.90
21031;DHT22;61072;47.808;7.636;2022-09-27T02:45:02;12.20;99.90
21031;DHT22;61072;47.808;7.636;2022-09-27T02:48:07;12.20;99.90
21031;DHT22;61072;47.808;7.636;2022-09-27T02:54:38;12.10;99.90
21031;DHT22;61072;47.808;7.636;2022-09-27T02:57:15;12.10;99.90
21031;DHT22;61072;47.808;7.636;2022-09-27T02:59:49;12.10;99.90
21031;DHT22;61072;47.808;7.636;2022-09-27T03:02:30;12.10;99.90
21031;DHT22;61072;47.808;7.636;2022-09-27T03:05:00;12.10;99.90
21031;DHT22;61072;47.808;7.636;2022-09-27T03:07:28;12.00;99.90
21031;DHT22;61072;47.808;7.636;2022-09-27T03:09:55;12.00;99.90
21031;DHT22;61072;47.808;7.636;2022-09-27T03:12:22;12.00;99.90
21031;DHT22;61072;47.808;7.636;2022-09-27T03:14:54;12.00;99.90
21031;DHT22;61072;47.808;7.636;2022-09-27T03:17:22;12.00;99.90
21031;DHT22;61072;47.808;7.636;2022-09-27T03:19:49;12.00;99.90
21031;DHT22;61072;47.808;7.636;2022-09-27T03:22:16;11.90;99.90
21031;DHT22;61072;47.808;7.636;2022-09-27T03:24:43;12.00;99.90
21031;DHT22;61072;47.808;7.636;2022-09-27T03:27:10;12.00;99.90
21031;DHT22;61072;47.808;7.636;2022-09-27T03:29:37;12.00;99.90
21031;DHT22;61072;47.808;7.636;2022-09-27T03:32:04;12.00;99.90
21031;DHT22;61072;47.808;7.636;2022-09-27T03:34:31;11.90;99.90
21031;DHT22;61072;47.808;7.636;2022-09-27T03:36:57;11.90;99.90
21031;DHT22;61072;47.808;7.636;2022-09-27T03:39:24;11.90;99.90
21031;DHT22;61072;47.808;7.636;2022-09-27T03:41:51;11.90;99.90
21031;DHT22;61072;47.808;7.636;2022-09-27T03:44:18;11.90;99.90
21031;DHT22;61072;47.808;7.636;2022-09-27T03:46:45;11.90;99.90
21031;DHT22;61072;47.808;7.636;2022-09-27T03:49:12;12.00;99.90
21031;DHT22;61072;47.808;7.636;2022-09-27T03:51:39;11.90;99.90
21031;DHT22;61072;47.808;7.636;2022-09-27T03:54:06;11.90;99.90
21031;DHT22;61072;47.808;7.636;2022-09-27T03:56:33;11.90;99.90
21031;DHT22;61072;47.808;7.636;2022-09-27T03:58:59;11.90;99.90
21031;DHT22;61072;47.808;7.636;2022-09-27T04:01:26;11.90;99.90
21031;DHT22;61072;47.808;7.636;2022-09-27T04:03:54;11.80;99.90
21031;DHT22;61072;47.808;7.636;2022-09-27T04:06:21;11.80;99.90
21031;DHT22;61072;47.808;7.636;2022-09-27T04:08:48;11.90;99.90
21031;DHT22;61072;47.808;7.636;2022-09-27T04:11:15;11.90;99.90
21031;DHT22;61072;47.808;7.636;2022-09-27T04:13:43;11.90;99.90
21031;DHT22;61072;47.808;7.636;2022-09-27T04:16:10;11.90;99.90
21031;DHT22;61072;47.808;7.636;2022-09-27T04:18:36;11.90;99.90
21031;DHT22;61072;47.808;7.636;2022-09-27T04:21:03;11.90;99.90
21031;DHT22;61072;47.808;7.636;2022-09-27T04:23:30;11.90;99.90
21031;DHT22;61072;47.808;7.636;2022-09-27T04:25:57;11.90;99.90
21031;DHT22;61072;47.808;7.636;2022-09-27T04:28:23;11.80;99.90
21031;DHT22;61072;47.808;7.636;2022-09-27T04:30:50;11.80;99.90
21031;DHT22;61072;47.808;7.636;2022-09-27T04:33:17;11.80;99.90
21031;DHT22;61072;47.808;7.636;2022-09-27T04:35:43;11.80;99.90
21031;DHT22;61072;47.808;7.636;2022-09-27T04:38:29;11.80;99.90
21031;DHT22;61072;47.808;7.636;2022-09-27T04:40:56;11.80;99.90
21031;DHT22;61072;47.808;7.636;2022-09-27T04:43:22;11.80;99.90
21031;DHT22;61072;47.808;7.636;2022-09-27T04:45:49;11.80;99.90
21031;DHT22;61072;47.808;7.636;2022-09-27T04:48:16;11.90;99.90
21031;DHT22;61072;47.808;7.636;2022-09-27T04:50:42;11.90;99.90
21031;DHT22;61072;47.808;7.636;2022-09-27T04:53:13;11.90;99.90
21031;DHT22;61072;47.808;7.636;2022-09-27T04:55:45;11.90;99.90
21031;DHT22;61072;47.808;7.636;2022-09-27T04:58:11;11.90;99.90
21031;DHT22;61072;47.808;7.636;2022-09-27T05:00:39;11.90;99.90
21031;DHT22;61072;47.808;7.636;2022-09-27T05:03:07;11.90;99.90
21031;DHT22;61072;47.808;7.636;2022-09-27T05:05:34;11.80;99.90
21031;DHT22;61072;47.808;7.636;2022-09-27T05:08:01;11.80;99.90
21031;DHT22;61072;47.808;7.636;2022-09-27T05:10:28;11.80;99.90
21031;DHT22;61072;47.808;7.636;2022-09-27T05:12:54;11.80;99.90
21031;DHT22;61072;47.808;7.636;2022-09-27T05:15:21;11.80;99.90
21031;DHT22;61072;47.808;7.636;2022-09-27T05:17:50;11.80;99.90
21031;DHT22;61072;47.808;7.636;2022-09-27T05:20:17;11.70;99.90
21031;DHT22;61072;47.808;7.636;2022-09-27T05:22:45;11.80;99.90
21031;DHT22;61072;47.808;7.636;2022-09-27T05:25:11;11.80;99.90
21031;DHT22;61072;47.808;7.636;2022-09-27T05:27:38;11.80;99.90
21031;DHT22;61072;47.808;7.636;2022-09-27T05:30:05;11.70;99.90
21031;DHT22;61072;47.808;7.636;2022-09-27T05:32:34;11.70;99.90
21031;DHT22;61072;47.808;7.636;2022-09-27T05:35:01;11.60;99.90
21031;DHT22;61072;47.808;7.636;2022-09-27T05:37:28;11.60;99.90
21031;DHT22;61072;47.808;7.636;2022-09-27T05:39:58;11.60;99.90
21031;DHT22;61072;47.808;7.636;2022-09-27T05:42:34;11.70;99.90
21031;DHT22;61072;47.808;7.636;2022-09-27T05:45:04;11.60;99.90
21031;DHT22;61072;47.808;7.636;2022-09-27T05:47:32;11.60;99.90
21031;DHT22;61072;47.808;7.636;2022-09-27T05:49:59;11.60;99.90
21031;DHT22;61072;47.808;7.636;2022-09-27T05:52:26;11.60;99.90
21031;DHT22;61072;47.808;7.636;2022-09-27T05:54:52;11.60;99.90
21031;DHT22;61072;47.808;7.636;2022-09-27T05:57:19;11.60;99.90
21031;DHT22;61072;47.808;7.636;2022-09-27T05:59:46;11.60;99.90
21031;DHT22;61072;47.808;7.636;2022-09-27T06:02:14;11.60;99.90
21031;DHT22;61072;47.808;7.636;2022-09-27T06:04:41;11.70;99.90
21031;DHT22;61072;47.808;7.636;2022-09-27T06:07:08;11.60;99.90
21031;DHT22;61072;47.808;7.636;2022-09-27T06:09:35;11.60;99.90
21031;DHT22;61072;47.808;7.636;2022-09-27T06:12:02;11.60;99.90
21031;DHT22;61072;47.808;7.636;2022-09-27T06:14:29;11.60;99.90
21031;DHT22;61072;47.808;7.636;2022-09-27T06:16:55;11.50;99.90
21031;DHT22;61072;47.808;7.636;2022-09-27T06:19:22;11.60;99.90
21031;DHT22;61072;47.808;7.636;2022-09-27T06:21:49;11.60;99.90
21031;DHT22;61072;47.808;7.636;2022-09-27T06:24:16;11.70;99.90
21031;DHT22;61072;47.808;7.636;2022-09-27T06:26:43;11.70;99.90
21031;DHT22;61072;47.808;7.636;2022-09-27T06:29:13;11.70;99.90
21031;DHT22;61072;47.808;7.636;2022-09-27T06:31:40;11.70;99.90
21031;DHT22;61072;47.808;7.636;2022-09-27T06:34:07;11.70;99.90
21031;DHT22;61072;47.808;7.636;2022-09-27T06:36:34;11.70;99.90
21031;DHT22;61072;47.808;7.636;2022-09-27T06:39:01;11.70;99.90
21031;DHT22;61072;47.808;7.636;2022-09-27T06:41:28;11.70;99.90
21031;DHT22;61072;47.808;7.636;2022-09-27T06:43:54;11.60;99.90
21031;DHT22;61072;47.808;7.636;2022-09-27T06:46:21;11.70;99.90
21031;DHT22;61072;47.808;7.636;2022-09-27T06:48:48;11.60;99.90
21031;DHT22;61072;47.808;7.636;2022-09-27T06:51:15;11.60;99.90
21031;DHT22;61072;47.808;7.636;2022-09-27T06:53:41;11.70;99.90
21031;DHT22;61072;47.808;7.636;2022-09-27T06:56:08;11.80;99.90
21031;DHT22;61072;47.808;7.636;2022-09-27T06:58:35;11.80;99.90
21031;DHT22;61072;47.808;7.636;2022-09-27T07:01:20;11.80;99.90
21031;DHT22;61072;47.808;7.636;2022-09-27T07:03:50;11.80;99.90
21031;DHT22;61072;47.808;7.636;2022-09-27T07:06:19;11.90;99.90
21031;DHT22;61072;47.808;7.636;2022-09-27T07:08:51;11.80;99.90
21031;DHT22;61072;47.808;7.636;2022-09-27T07:11:19;11.80;99.90
21031;DHT22;61072;47.808;7.636;2022-09-27T07:13:46;11.80;99.90
21031;DHT22;61072;47.808;7.636;2022-09-27T07:16:13;11.80;99.90
21031;DHT22;61072;47.808;7.636;2022-09-27T07:18:41;11.80;99.90
21031;DHT22;61072;47.808;7.636;2022-09-27T07:21:08;11.80;99.90
21031;DHT22;61072;47.808;7.636;2022-09-27T07:23:36;11.80;99.90
21031;DHT22;61072;47.808;7.636;2022-09-27T07:26:04;11.80;99.90
21031;DHT22;61072;47.808;7.636;2022-09-27T07:28:33;11.80;99.90
21031;DHT22;61072;47.808;7.636;2022-09-27T07:31:00;11.90;99.90
21031;DHT22;61072;47.808;7.636;2022-09-27T07:33:29;11.90;99.90
21031;DHT22;61072;47.808;7.636;2022-09-27T07:35:55;12.00;99.90
21031;DHT22;61072;47.808;7.636;2022-09-27T07:38:22;12.00;99.90
21031;DHT22;61072;47.808;7.636;2022-09-27T07:40:49;12.10;99.90
21031;DHT22;61072;47.808;7.636;2022-09-27T07:43:16;12.10;99.90
21031;DHT22;61072;47.808;7.636;2022-09-27T07:45:43;12.10;99.90
21031;DHT22;61072;47.808;7.636;2022-09-27T07:48:13;12.20;99.90
21031;DHT22;61072;47.808;7.636;2022-09-27T07:50:40;12.10;99.90
21031;DHT22;61072;47.808;7.636;2022-09-27T07:53:06;12.20;99.90
21031;DHT22;61072;47.808;7.636;2022-09-27T07:55:33;12.20;99.90
21031;DHT22;61072;47.808;7.636;2022-09-27T07:58:04;12.30;99.90
21031;DHT22;61072;47.808;7.636;2022-09-27T08:00:31;12.30;99.90
21031;DHT22;61072;47.808;7.636;2022-09-27T08:02:58;12.40;99.90
21031;DHT22;61072;47.808;7.636;2022-09-27T08:05:29;12.30;99.90
21031;DHT22;61072;47.808;7.636;2022-09-27T08:07:55;12.30;99.90
21031;DHT22;61072;47.808;7.636;2022-09-27T08:10:22;12.30;99.90
21031;DHT22;61072;47.808;7.636;2022-09-27T08:12:52;12.30;99.90
21031;DHT22;61072;47.808;7.636;2022-09-27T08:15:19;12.30;99.90
21031;DHT22;61072;47.808;7.636;2022-09-27T08:17:46;12.30;99.90
21031;DHT22;61072;47.808;7.636;2022-09-27T08:20:13;12.30;99.90
21031;DHT22;61072;47.808;7.636;2022-09-27T08:22:41;12.40;99.90
21031;DHT22;61072;47.808;7.636;2022-09-27T08:25:08;12.30;99.90
21031;DHT22;61072;47.808;7.636;2022-09-27T08:27:35;12.30;99.90
21031;DHT22;61072;47.808;7.636;2022-09-27T08:30:02;12.30;99.90
21031;DHT22;61072;47.808;7.636;2022-09-27T08:32:29;12.30;99.90
21031;DHT22;61072;47.808;7.636;2022-09-27T08:34:56;12.30;99.90
21031;DHT22;61072;47.808;7.636;2022-09-27T08:37:23;12.30;99.90
21031;DHT22;61072;47.808;7.636;2022-09-27T08:39:49;12.30;99.90
21031;DHT22;61072;47.808;7.636;2022-09-27T08:42:32;12.30;99.90
21031;DHT22;61072;47.808;7.636;2022-09-27T08:45:07;12.40;99.90
21031;DHT22;61072;47.808;7.636;2022-09-27T08:47:37;12.50;99.90
21031;DHT22;61072;47.808;7.636;2022-09-27T08:50:27;12.50;99.90
21031;DHT22;61072;47.808;7.636;2022-09-27T08:52:59;12.60;99.90
21031;DHT22;61072;47.808;7.636;2022-09-27T08:55:35;12.70;99.90
21031;DHT22;61072;47.808;7.636;2022-09-27T09:00:41;12.90;99.90
21031;DHT22;61072;47.808;7.636;2022-09-27T09:03:21;12.90;99.90
21031;DHT22;61072;47.808;7.636;2022-09-27T09:05:51;13.00;99.90
21031;DHT22;61072;47.808;7.636;2022-09-27T09:19:38;12.60;99.90
21031;DHT22;61072;47.808;7.636;2022-09-27T09:25:34;12.70;99.90
21031;DHT22;61072;47.808;7.636;2022-09-27T09:28:22;12.70;99.90
21031;DHT22;61072;47.808;7.636;2022-09-27T09:33:49;12.90;99.90
21031;DHT22;61072;47.808;7.636;2022-09-27T09:36:36;12.90;99.90
21031;DHT22;61072;47.808;7.636;2022-09-27T09:39:11;13.00;99.90
21031;DHT22;61072;47.808;7.636;2022-09-27T09:41:54;13.00;99.90
21031;DHT22;61072;47.808;7.636;2022-09-27T09:44:27;13.10;99.90
21031;DHT22;61072;47.808;7.636;2022-09-27T09:46:58;13.10;99.90
21031;DHT22;61072;47.808;7.636;2022-09-27T09:49:33;13.00;99.90
21031;DHT22;61072;47.808;7.636;2022-09-27T09:52:11;13.10;99.90
21031;DHT22;61072;47.808;7.636;2022-09-27T09:54:44;13.00;99.90
21031;DHT22;61072;47.808;7.636;2022-09-27T09:57:19;13.00;99.90
21031;DHT22;61072;47.808;7.636;2022-09-27T09:59:54;13.00;99.90
21031;DHT22;61072;47.808;7.636;2022-09-27T10:02:36;13.00;99.90
21031;DHT22;61072;47.808;7.636;2022-09-27T10:05:05;12.90;99.90
21031;DHT22;61072;47.808;7.636;2022-09-27T10:07:35;13.00;99.90
21031;DHT22;61072;47.808;7.636;2022-09-27T10:10:05;13.00;99.90
21031;DHT22;61072;47.808;7.636;2022-09-27T10:12:32;13.00;99.90
21031;DHT22;61072;47.808;7.636;2022-09-27T10:15:03;12.80;99.90
21031;DHT22;61072;47.808;7.636;2022-09-27T10:17:37;12.80;99.90
21031;DHT22;61072;47.808;7.636;2022-09-27T10:20:06;12.80;99.90
21031;DHT22;61072;47.808;7.636;2022-09-27T10:22:46;12.80;99.90
21031;DHT22;61072;47.808;7.636;2022-09-27T10:25:13;12.90;99.90
21031;DHT22;61072;47.808;7.636;2022-09-27T10:27:45;13.10;99.90
21031;DHT22;61072;47.808;7.636;2022-09-27T10:30:24;13.30;99.90
21031;DHT22;61072;47.808;7.636;2022-09-27T10:32:53;13.50;99.90
21031;DHT22;61072;47.808;7.636;2022-09-27T10:38:24;13.90;99.90
21031;DHT22;61072;47.808;7.636;2022-09-27T10:40:54;14.10;99.90
21031;DHT22;61072;47.808;7.636;2022-09-27T10:46:12;14.10;99.90
21031;DHT22;61072;47.808;7.636;2022-09-27T10:48:41;14.10;99.90
21031;DHT22;61072;47.808;7.636;2022-09-27T10:51:28;13.90;99.90
21031;DHT22;61072;47.808;7.636;2022-09-27T10:53:55;13.80;99.90
21031;DHT22;61072;47.808;7.636;2022-09-27T10:56:29;13.80;99.90
21031;DHT22;61072;47.808;7.636;2022-09-27T10:58:58;13.70;99.90
21031;DHT22;61072;47.808;7.636;2022-09-27T11:01:43;13.70;99.90
21031;DHT22;61072;47.808;7.636;2022-09-27T11:04:30;13.70;99.90
21031;DHT22;61072;47.808;7.636;2022-09-27T11:09:44;13.90;99.90
21031;DHT22;61072;47.808;7.636;2022-09-27T11:12:12;14.00;99.90
21031;DHT22;61072;47.808;7.636;2022-09-27T11:14:40;14.10;99.90
21031;DHT22;61072;47.808;7.636;2022-09-27T11:17:15;14.20;99.90
21031;DHT22;61072;47.808;7.636;2022-09-27T11:28:23;14.30;99.90
21031;DHT22;61072;47.808;7.636;2022-09-27T11:36:27;14.00;99.90
21031;DHT22;61072;47.808;7.636;2022-09-27T11:41:56;13.80;99.90
21031;DHT22;61072;47.808;7.636;2022-09-27T11:44:56;13.70;99.90
21031;DHT22;61072;47.808;7.636;2022-09-27T11:48:13;13.60;99.90
21031;DHT22;61072;47.808;7.636;2022-09-27T11:50:56;13.40;99.90
21031;DHT22;61072;47.808;7.636;2022-09-27T11:56:26;13.30;99.90
21031;DHT22;61072;47.808;7.636;2022-09-27T11:59:19;13.30;99.90
21031;DHT22;61072;47.808;7.636;2022-09-27T12:05:04;13.30;99.90
21031;DHT22;61072;47.808;7.636;2022-09-27T12:10:41;13.40;99.90
21031;DHT22;61072;47.808;7.636;2022-09-27T12:13:12;13.60;99.90
21031;DHT22;61072;47.808;7.636;2022-09-27T12:15:42;13.70;99.90
21031;DHT22;61072;47.808;7.636;2022-09-27T12:18:31;13.80;99.90
21031;DHT22;61072;47.808;7.636;2022-09-27T12:21:01;13.90;99.90
21031;DHT22;61072;47.808;7.636;2022-09-27T12:23:42;13.90;99.90
21031;DHT22;61072;47.808;7.636;2022-09-27T12:26:26;13.90;99.90
21031;DHT22;61072;47.808;7.636;2022-09-27T12:31:30;13.90;99.90
21031;DHT22;61072;47.808;7.636;2022-09-27T12:34:05;13.90;99.90
21031;DHT22;61072;47.808;7.636;2022-09-27T12:36:43;13.90;99.90
21031;DHT22;61072;47.808;7.636;2022-09-27T12:41:52;13.70;99.90
21031;DHT22;61072;47.808;7.636;2022-09-27T12:44:27;13.70;99.90
21031;DHT22;61072;47.808;7.636;2022-09-27T12:47:17;13.60;99.90
21031;DHT22;61072;47.808;7.636;2022-09-27T12:52:35;13.50;99.90
21031;DHT22;61072;47.808;7.636;2022-09-27T13:00:19;13.50;99.90
21031;DHT22;61072;47.808;7.636;2022-09-27T13:08:55;13.30;99.90
21031;DHT22;61072;47.808;7.636;2022-09-27T13:14:31;13.30;99.90
21031;DHT22;61072;47.808;7.636;2022-09-27T13:16:59;13.30;99.90
21031;DHT22;61072;47.808;7.636;2022-09-27T13:22:03;13.20;99.90
21031;DHT22;61072;47.808;7.636;2022-09-27T13:35:34;13.30;99.90
21031;DHT22;61072;47.808;7.636;2022-09-27T13:38:01;13.20;99.90
21031;DHT22;61072;47.808;7.636;2022-09-27T13:45:52;13.30;99.90
21031;DHT22;61072;47.808;7.636;2022-09-27T13:48:48;13.30;99.90
21031;DHT22;61072;47.808;7.636;2022-09-27T13:51:35;13.30;99.90
21031;DHT22;61072;47.808;7.636;2022-09-27T13:54:35;13.30;99.90
21031;DHT22;61072;47.808;7.636;2022-09-27T13:57:07;13.30;99.90
21031;DHT22;61072;47.808;7.636;2022-09-27T13:59:53;13.40;99.90
21031;DHT22;61072;47.808;7.636;2022-09-27T14:02:28;13.40;99.90
21031;DHT22;61072;47.808;7.636;2022-09-27T14:04:59;13.40;99.90
21031;DHT22;61072;47.808;7.636;2022-09-27T14:07:35;13.40;99.90
21031;DHT22;61072;47.808;7.636;2022-09-27T14:10:03;13.50;99.90
21031;DHT22;61072;47.808;7.636;2022-09-27T14:12:33;13.60;99.90
21031;DHT22;61072;47.808;7.636;2022-09-27T14:15:01;13.70;99.90
21031;DHT22;61072;47.808;7.636;2022-09-27T14:17:29;13.70;99.90
21031;DHT22;61072;47.808;7.636;2022-09-27T14:19:56;13.80;99.90
21031;DHT22;61072;47.808;7.636;2022-09-27T14:22:24;13.80;99.90
21031;DHT22;61072;47.808;7.636;2022-09-27T14:24:53;13.90;99.90
21031;DHT22;61072;47.808;7.636;2022-09-27T14:27:24;13.80;99.90
21031;DHT22;61072;47.808;7.636;2022-09-27T14:30:11;13.90;99.90
21031;DHT22;61072;47.808;7.636;2022-09-27T14:32:53;13.90;99.90
21031;DHT22;61072;47.808;7.636;2022-09-27T14:35:23;13.80;99.90
21031;DHT22;61072;47.808;7.636;2022-09-27T14:38:14;13.80;99.90
21031;DHT22;61072;47.808;7.636;2022-09-27T14:41:06;13.70;99.90
21031;DHT22;61072;47.808;7.636;2022-09-27T14:43:35;13.70;99.90
21031;DHT22;61072;47.808;7.636;2022-09-27T14:46:04;13.70;99.90
21031;DHT22;61072;47.808;7.636;2022-09-27T14:48:36;13.60;99.90
21031;DHT22;61072;47.808;7.636;2022-09-27T14:51:19;13.60;99.90
21031;DHT22;61072;47.808;7.636;2022-09-27T14:53:51;13.70;99.90
21031;DHT22;61072;47.808;7.636;2022-09-27T14:56:33;13.60;99.90
21031;DHT22;61072;47.808;7.636;2022-09-27T14:59:09;13.70;99.90
21031;DHT22;61072;47.808;7.636;2022-09-27T15:01:47;13.70;99.90
21031;DHT22;61072;47.808;7.636;2022-09-27T15:04:16;13.60;99.90
21031;DHT22;61072;47.808;7.636;2022-09-27T15:06:45;13.60;99.90
21031;DHT22;61072;47.808;7.636;2022-09-27T15:09:13;13.60;99.90
21031;DHT22;61072;47.808;7.636;2022-09-27T15:11:42;13.50;99.90
21031;DHT22;61072;47.808;7.636;2022-09-27T15:14:14;13.50;99.90
21031;DHT22;61072;47.808;7.636;2022-09-27T15:16:41;13.40;99.90
21031;DHT22;61072;47.808;7.636;2022-09-27T15:19:16;13.30;99.90
21031;DHT22;61072;47.808;7.636;2022-09-27T15:21:47;13.30;99.90
21031;DHT22;61072;47.808;7.636;2022-09-27T15:24:37;13.30;99.90
21031;DHT22;61072;47.808;7.636;2022-09-27T15:27:15;13.20;99.90
21031;DHT22;61072;47.808;7.636;2022-09-27T15:29:54;13.20;99.90
21031;DHT22;61072;47.808;7.636;2022-09-27T15:32:23;13.20;99.90
21031;DHT22;61072;47.808;7.636;2022-09-27T15:34:51;13.20;99.90
21031;DHT22;61072;47.808;7.636;2022-09-27T15:37:34;13.20;99.90
21031;DHT22;61072;47.808;7.636;2022-09-27T15:42:55;13.30;99.90
21031;DHT22;61072;47.808;7.636;2022-09-27T15:45:35;13.30;99.90
21031;DHT22;61072;47.808;7.636;2022-09-27T15:48:13;13.30;99.90
21031;DHT22;61072;47.808;7.636;2022-09-27T15:50:41;13.30;99.90
21031;DHT22;61072;47.808;7.636;2022-09-27T15:53:09;13.30;99.90
21031;DHT22;61072;47.808;7.636;2022-09-27T15:55:41;13.30;99.90
21031;DHT22;61072;47.808;7.636;2022-09-27T15:58:14;13.30;99.90
21031;DHT22;61072;47.808;7.636;2022-09-27T16:00:59;13.30;99.90
21031;DHT22;61072;47.808;7.636;2022-09-27T16:03:29;13.30;99.90
21031;DHT22;61072;47.808;7.636;2022-09-27T16:05:58;13.20;99.90
21031;DHT22;61072;47.808;7.636;2022-09-27T16:08:25;13.20;99.90
21031;DHT22;61072;47.808;7.636;2022-09-27T16:10:54;13.20;99.90
21031;DHT22;61072;47.808;7.636;2022-09-27T16:13:23;13.20;99.90
21031;DHT22;61072;47.808;7.636;2022-09-27T16:15:55;13.20;99.90
21031;DHT22;61072;47.808;7.636;2022-09-27T16:18:22;13.10;99.90
21031;DHT22;61072;47.808;7.636;2022-09-27T16:20:57;13.10;99.90
21031;DHT22;61072;47.808;7.636;2022-09-27T16:23:23;13.00;99.90
21031;DHT22;61072;47.808;7.636;2022-09-27T16:25:52;12.90;99.90
21031;DHT22;61072;47.808;7.636;2022-09-27T16:28:19;12.90;99.90
21031;DHT22;61072;47.808;7.636;2022-09-27T16:30:47;12.90;99.90
21031;DHT22;61072;47.808;7.636;2022-09-27T16:33:14;12.80;99.90
21031;DHT22;61072;47.808;7.636;2022-09-27T16:35:41;12.70;99.90
21031;DHT22;61072;47.808;7.636;2022-09-27T16:38:09;12.70;99.90
21031;DHT22;61072;47.808;7.636;2022-09-27T16:40:36;12.70;99.90
21031;DHT22;61072;47.808;7.636;2022-09-27T16:43:04;12.60;99.90
21031;DHT22;61072;47.808;7.636;2022-09-27T16:45:34;12.60;99.90
21031;DHT22;61072;47.808;7.636;2022-09-27T16:48:02;12.60;99.90
21031;DHT22;61072;47.808;7.636;2022-09-27T16:50:29;12.60;99.90
21031;DHT22;61072;47.808;7.636;2022-09-27T16:53:14;12.50;99.90
21031;DHT22;61072;47.808;7.636;2022-09-27T16:55:41;12.50;99.90
21031;DHT22;61072;47.808;7.636;2022-09-27T16:58:08;12.50;99.90
21031;DHT22;61072;47.808;7.636;2022-09-27T17:00:34;12.50;99.90
21031;DHT22;61072;47.808;7.636;2022-09-27T17:03:01;12.40;99.90
21031;DHT22;61072;47.808;7.636;2022-09-27T17:05:28;12.40;99.90
21031;DHT22;61072;47.808;7.636;2022-09-27T17:07:54;12.50;99.90
21031;DHT22;61072;47.808;7.636;2022-09-27T17:10:22;12.40;99.90
21031;DHT22;61072;47.808;7.636;2022-09-27T17:12:49;12.40;99.90
21031;DHT22;61072;47.808;7.636;2022-09-27T17:15:17;12.30;99.90
21031;DHT22;61072;47.808;7.636;2022-09-27T17:17:47;12.40;99.90
21031;DHT22;61072;47.808;7.636;2022-09-27T17:20:14;12.40;99.90
21031;DHT22;61072;47.808;7.636;2022-09-27T17:22:41;12.40;99.90
21031;DHT22;61072;47.808;7.636;2022-09-27T17:25:08;12.40;99.90
21031;DHT22;61072;47.808;7.636;2022-09-27T17:27:35;12.40;99.90
21031;DHT22;61072;47.808;7.636;2022-09-27T17:30:02;12.40;99.90
21031;DHT22;61072;47.808;7.636;2022-09-27T17:32:29;12.40;99.90
21031;DHT22;61072;47.808;7.636;2022-09-27T17:34:56;12.40;99.90
21031;DHT22;61072;47.808;7.636;2022-09-27T17:37:22;12.40;99.90
21031;DHT22;61072;47.808;7.636;2022-09-27T17:39:50;12.40;99.90
21031;DHT22;61072;47.808;7.636;2022-09-27T17:42:16;12.30;99.90
21031;DHT22;61072;47.808;7.636;2022-09-27T17:44:44;12.30;99.90
21031;DHT22;61072;47.808;7.636;2022-09-27T17:47:11;12.20;99.90
21031;DHT22;61072;47.808;7.636;2022-09-27T17:49:57;12.20;99.90
21031;DHT22;61072;47.808;7.636;2022-09-27T17:52:42;12.20;99.90
21031;DHT22;61072;47.808;7.636;2022-09-27T17:55:09;12.30;99.90
21031;DHT22;61072;47.808;7.636;2022-09-27T17:57:36;12.10;99.90
21031;DHT22;61072;47.808;7.636;2022-09-27T18:00:03;12.20;99.90
21031;DHT22;61072;47.808;7.636;2022-09-27T18:02:37;12.30;99.90
21031;DHT22;61072;47.808;7.636;2022-09-27T18:05:05;12.30;99.90
21031;DHT22;61072;47.808;7.636;2022-09-27T18:07:34;12.30;99.90
21031;DHT22;61072;47.808;7.636;2022-09-27T18:10:03;12.30;99.90
21031;DHT22;61072;47.808;7.636;2022-09-27T18:12:30;12.20;99.90
21031;DHT22;61072;47.808;7.636;2022-09-27T18:15:00;12.10;99.90